sensor_id;sensor_type;location;lat;lon;timestamp;temperature;humidity
84435;SHT30;74664;45.620;5.138;2023-12-29T00:01:12;13.21;65.56
84435;SHT30;74664;45.620;5.138;2023-12-29T00:03:38;13.20;65.56
84435;SHT30;74664;45.620;5.138;2023-12-29T00:06:06;13.20;65.55
84435;SHT30;74664;45.620;5.138;2023-12-29T00:08:33;13.21;65.55
84435;SHT30;74664;45.620;5.138;2023-12-29T00:11:01;13.23;65.50
84435;SHT30;74664;45.620;5.138;2023-12-29T00:13:28;13.23;65.46
84435;SHT30;74664;45.620;5.138;2023-12-29T00:15:56;13.24;65.36
84435;SHT30;74664;45.620;5.138;2023-12-29T00:18:23;13.24;65.28
84435;SHT30;74664;45.620;5.138;2023-12-29T00:20:50;13.28;65.33
84435;SHT30;74664;45.620;5.138;2023-12-29T00:23:15;13.27;65.27
84435;SHT30;74664;45.620;5.138;2023-12-29T00:25:43;13.27;65.21
84435;SHT30;74664;45.620;5.138;2023-12-29T00:28:09;13.26;65.25
84435;SHT30;74664;45.620;5.138;2023-12-29T00:30:38;13.27;65.26
84435;SHT30;74664;45.620;5.138;2023-12-29T00:33:06;13.27;65.23
84435;SHT30;74664;45.620;5.138;2023-12-29T00:35:36;13.26;65.23
84435;SHT30;74664;45.620;5.138;2023-12-29T00:38:03;13.23;65.24
84435;SHT30;74664;45.620;5.138;2023-12-29T00:40:30;13.24;65.28
84435;SHT30;74664;45.620;5.138;2023-12-29T00:42:57;13.24;65.27
84435;SHT30;74664;45.620;5.138;2023-12-29T00:45:23;13.26;65.32
84435;SHT30;74664;45.620;5.138;2023-12-29T00:47:57;13.24;65.24
84435;SHT30;74664;45.620;5.138;2023-12-29T00:50:25;13.26;65.19
84435;SHT30;74664;45.620;5.138;2023-12-29T00:52:52;13.23;65.25
84435;SHT30;74664;45.620;5.138;2023-12-29T00:55:20;13.24;65.28
84435;SHT30;74664;45.620;5.138;2023-12-29T00:57:46;13.23;65.28
84435;SHT30;74664;45.620;5.138;2023-12-29T01:00:13;13.20;65.33
84435;SHT30;74664;45.620;5.138;2023-12-29T01:02:40;13.23;65.39
84435;SHT30;74664;45.620;5.138;2023-12-29T01:05:07;13.23;65.40
84435;SHT30;74664;45.620;5.138;2023-12-29T01:07:35;13.21;65.52
84435;SHT30;74664;45.620;5.138;2023-12-29T01:10:03;13.20;65.58
84435;SHT30;74664;45.620;5.138;2023-12-29T01:12:30;13.20;65.67
84435;SHT30;74664;45.620;5.138;2023-12-29T01:14:56;13.21;65.65
84435;SHT30;74664;45.620;5.138;2023-12-29T01:17:23;13.18;65.67
84435;SHT30;74664;45.620;5.138;2023-12-29T01:19:50;13.20;65.72
84435;SHT30;74664;45.620;5.138;2023-12-29T01:22:16;13.20;65.71
84435;SHT30;74664;45.620;5.138;2023-12-29T01:24:47;13.18;65.78
84435;SHT30;74664;45.620;5.138;2023-12-29T01:27:14;13.18;65.83
84435;SHT30;74664;45.620;5.138;2023-12-29T01:29:42;13.20;65.81
84435;SHT30;74664;45.620;5.138;2023-12-29T01:32:08;13.21;65.86
84435;SHT30;74664;45.620;5.138;2023-12-29T01:34:35;13.18;65.89
84435;SHT30;74664;45.620;5.138;2023-12-29T01:37:03;13.17;66.00
84435;SHT30;74664;45.620;5.138;2023-12-29T01:39:30;13.16;66.07
84435;SHT30;74664;45.620;5.138;2023-12-29T01:41:58;13.18;66.10
84435;SHT30;74664;45.620;5.138;2023-12-29T01:44:25;13.17;66.06
84435;SHT30;74664;45.620;5.138;2023-12-29T01:46:54;13.17;66.10
84435;SHT30;74664;45.620;5.138;2023-12-29T01:49:21;13.16;66.26
84435;SHT30;74664;45.620;5.138;2023-12-29T01:51:50;13.16;66.31
84435;SHT30;74664;45.620;5.138;2023-12-29T01:54:19;13.18;66.30
84435;SHT30;74664;45.620;5.138;2023-12-29T01:56:48;13.16;66.47
84435;SHT30;74664;45.620;5.138;2023-12-29T01:59:19;13.14;66.56
84435;SHT30;74664;45.620;5.138;2023-12-29T02:01:46;13.17;66.59
84435;SHT30;74664;45.620;5.138;2023-12-29T02:04:14;13.18;66.63
84435;SHT30;74664;45.620;5.138;2023-12-29T02:06:41;13.20;66.59
84435;SHT30;74664;45.620;5.138;2023-12-29T02:09:08;13.21;66.56
84435;SHT30;74664;45.620;5.138;2023-12-29T02:11:35;13.24;66.57
84435;SHT30;74664;45.620;5.138;2023-12-29T02:14:02;13.26;66.55
84435;SHT30;74664;45.620;5.138;2023-12-29T02:16:37;13.23;66.53
84435;SHT30;74664;45.620;5.138;2023-12-29T02:19:13;13.24;66.54
84435;SHT30;74664;45.620;5.138;2023-12-29T02:21:44;13.26;66.44
84435;SHT30;74664;45.620;5.138;2023-12-29T02:24:11;13.26;66.37
84435;SHT30;74664;45.620;5.138;2023-12-29T02:26:40;13.23;66.34
84435;SHT30;74664;45.620;5.138;2023-12-29T02:29:13;13.26;66.36
84435;SHT30;74664;45.620;5.138;2023-12-29T02:31:44;13.24;66.36
84435;SHT30;74664;45.620;5.138;2023-12-29T02:34:14;13.26;66.34
84435;SHT30;74664;45.620;5.138;2023-12-29T02:36:41;13.26;66.37
84435;SHT30;74664;45.620;5.138;2023-12-29T02:39:09;13.26;66.42
84435;SHT30;74664;45.620;5.138;2023-12-29T02:41:38;13.28;66.41
84435;SHT30;74664;45.620;5.138;2023-12-29T02:44:05;13.24;66.41
84435;SHT30;74664;45.620;5.138;2023-12-29T02:46:32;13.26;66.46
84435;SHT30;74664;45.620;5.138;2023-12-29T02:48:58;13.26;66.42
84435;SHT30;74664;45.620;5.138;2023-12-29T02:51:25;13.24;66.44
84435;SHT30;74664;45.620;5.138;2023-12-29T02:53:52;13.24;66.40
84435;SHT30;74664;45.620;5.138;2023-12-29T02:56:18;13.27;66.39
84435;SHT30;74664;45.620;5.138;2023-12-29T02:58:47;13.23;66.38
84435;SHT30;74664;45.620;5.138;2023-12-29T03:01:13;13.24;66.35
84435;SHT30;74664;45.620;5.138;2023-12-29T03:03:40;13.26;66.36
84435;SHT30;74664;45.620;5.138;2023-12-29T03:06:09;13.24;66.50
84435;SHT30;74664;45.620;5.138;2023-12-29T03:08:35;13.21;66.64
84435;SHT30;74664;45.620;5.138;2023-12-29T03:11:02;13.21;66.67
84435;SHT30;74664;45.620;5.138;2023-12-29T03:13:29;13.21;66.67
84435;SHT30;74664;45.620;5.138;2023-12-29T03:15:59;13.20;66.81
84435;SHT30;74664;45.620;5.138;2023-12-29T03:18:26;13.20;66.88
84435;SHT30;74664;45.620;5.138;2023-12-29T03:20:52;13.26;67.04
84435;SHT30;74664;45.620;5.138;2023-12-29T03:23:19;13.27;67.05
84435;SHT30;74664;45.620;5.138;2023-12-29T03:25:46;13.26;67.26
84435;SHT30;74664;45.620;5.138;2023-12-29T03:28:15;13.23;67.43
84435;SHT30;74664;45.620;5.138;2023-12-29T03:30:42;13.21;67.50
84435;SHT30;74664;45.620;5.138;2023-12-29T03:33:10;13.18;67.70
84435;SHT30;74664;45.620;5.138;2023-12-29T03:35:36;13.18;67.98
84435;SHT30;74664;45.620;5.138;2023-12-29T03:38:03;13.18;68.04
84435;SHT30;74664;45.620;5.138;2023-12-29T03:40:30;13.16;68.23
84435;SHT30;74664;45.620;5.138;2023-12-29T03:42:57;13.13;68.29
84435;SHT30;74664;45.620;5.138;2023-12-29T03:45:23;13.14;68.21
84435;SHT30;74664;45.620;5.138;2023-12-29T03:47:50;13.10;68.50
84435;SHT30;74664;45.620;5.138;2023-12-29T03:50:18;13.10;68.72
84435;SHT30;74664;45.620;5.138;2023-12-29T03:52:45;13.10;68.72
84435;SHT30;74664;45.620;5.138;2023-12-29T03:55:11;13.09;68.90
84435;SHT30;74664;45.620;5.138;2023-12-29T03:57:40;13.09;68.72
84435;SHT30;74664;45.620;5.138;2023-12-29T04:00:12;13.07;68.84
84435;SHT30;74664;45.620;5.138;2023-12-29T04:02:40;13.10;68.73
84435;SHT30;74664;45.620;5.138;2023-12-29T04:05:08;13.04;69.01
84435;SHT30;74664;45.620;5.138;2023-12-29T04:07:39;13.06;69.26
84435;SHT30;74664;45.620;5.138;2023-12-29T04:10:06;13.03;69.23
84435;SHT30;74664;45.620;5.138;2023-12-29T04:12:33;13.03;69.53
84435;SHT30;74664;45.620;5.138;2023-12-29T04:15:00;13.06;69.60
84435;SHT30;74664;45.620;5.138;2023-12-29T04:17:27;13.04;69.44
84435;SHT30;74664;45.620;5.138;2023-12-29T04:19:54;13.06;69.84
84435;SHT30;74664;45.620;5.138;2023-12-29T04:22:21;13.02;69.76
84435;SHT30;74664;45.620;5.138;2023-12-29T04:24:49;13.02;69.92
84435;SHT30;74664;45.620;5.138;2023-12-29T04:27:16;13.00;70.17
84435;SHT30;74664;45.620;5.138;2023-12-29T04:29:43;13.02;70.10
84435;SHT30;74664;45.620;5.138;2023-12-29T04:32:10;12.97;70.27
84435;SHT30;74664;45.620;5.138;2023-12-29T04:34:36;13.02;70.16
84435;SHT30;74664;45.620;5.138;2023-12-29T04:37:03;12.97;70.10
84435;SHT30;74664;45.620;5.138;2023-12-29T04:39:30;12.96;70.17
84435;SHT30;74664;45.620;5.138;2023-12-29T04:41:58;12.97;70.22
84435;SHT30;74664;45.620;5.138;2023-12-29T04:44:25;12.99;70.33
84435;SHT30;74664;45.620;5.138;2023-12-29T04:46:51;12.96;70.20
84435;SHT30;74664;45.620;5.138;2023-12-29T04:49:18;12.96;70.35
84435;SHT30;74664;45.620;5.138;2023-12-29T04:51:45;12.97;70.23
84435;SHT30;74664;45.620;5.138;2023-12-29T04:54:14;12.96;70.22
84435;SHT30;74664;45.620;5.138;2023-12-29T04:56:40;12.96;70.17
84435;SHT30;74664;45.620;5.138;2023-12-29T04:59:09;12.97;70.30
84435;SHT30;74664;45.620;5.138;2023-12-29T05:01:35;12.97;70.19
84435;SHT30;74664;45.620;5.138;2023-12-29T05:04:02;12.99;70.19
84435;SHT30;74664;45.620;5.138;2023-12-29T05:06:29;13.00;70.24
84435;SHT30;74664;45.620;5.138;2023-12-29T05:08:55;12.99;70.19
84435;SHT30;74664;45.620;5.138;2023-12-29T05:11:22;13.00;70.11
84435;SHT30;74664;45.620;5.138;2023-12-29T05:13:49;13.00;70.20
84435;SHT30;74664;45.620;5.138;2023-12-29T05:16:17;13.03;70.11
84435;SHT30;74664;45.620;5.138;2023-12-29T05:18:44;13.02;70.10
84435;SHT30;74664;45.620;5.138;2023-12-29T05:21:14;13.04;70.03
84435;SHT30;74664;45.620;5.138;2023-12-29T05:23:41;13.02;69.98
84435;SHT30;74664;45.620;5.138;2023-12-29T05:26:08;13.03;70.04
84435;SHT30;74664;45.620;5.138;2023-12-29T05:28:35;13.00;70.30
84435;SHT30;74664;45.620;5.138;2023-12-29T05:31:01;13.03;70.30
84435;SHT30;74664;45.620;5.138;2023-12-29T05:33:30;13.02;70.32
84435;SHT30;74664;45.620;5.138;2023-12-29T05:35:57;13.04;70.26
84435;SHT30;74664;45.620;5.138;2023-12-29T05:38:23;13.02;70.49
84435;SHT30;74664;45.620;5.138;2023-12-29T05:40:50;13.02;70.42
84435;SHT30;74664;45.620;5.138;2023-12-29T05:43:18;12.99;70.48
84435;SHT30;74664;45.620;5.138;2023-12-29T05:45:45;13.00;70.40
84435;SHT30;74664;45.620;5.138;2023-12-29T05:48:12;13.00;70.52
84435;SHT30;74664;45.620;5.138;2023-12-29T05:50:42;12.99;70.36
84435;SHT30;74664;45.620;5.138;2023-12-29T05:53:09;13.02;70.35
84435;SHT30;74664;45.620;5.138;2023-12-29T05:55:36;12.99;70.43
84435;SHT30;74664;45.620;5.138;2023-12-29T05:58:03;12.99;70.41
84435;SHT30;74664;45.620;5.138;2023-12-29T06:00:29;13.00;70.37
84435;SHT30;74664;45.620;5.138;2023-12-29T06:02:56;12.99;70.30
84435;SHT30;74664;45.620;5.138;2023-12-29T06:05:23;13.00;70.45
84435;SHT30;74664;45.620;5.138;2023-12-29T06:07:51;13.00;70.40
84435;SHT30;74664;45.620;5.138;2023-12-29T06:10:17;12.97;70.44
84435;SHT30;74664;45.620;5.138;2023-12-29T06:12:47;12.97;70.40
84435;SHT30;74664;45.620;5.138;2023-12-29T06:15:17;12.96;70.30
84435;SHT30;74664;45.620;5.138;2023-12-29T06:17:43;12.96;70.40
84435;SHT30;74664;45.620;5.138;2023-12-29T06:20:11;12.93;70.39
84435;SHT30;74664;45.620;5.138;2023-12-29T06:22:39;12.93;70.36
84435;SHT30;74664;45.620;5.138;2023-12-29T06:25:09;12.93;70.31
84435;SHT30;74664;45.620;5.138;2023-12-29T06:27:36;12.93;70.39
84435;SHT30;74664;45.620;5.138;2023-12-29T06:30:04;12.89;70.29
84435;SHT30;74664;45.620;5.138;2023-12-29T06:32:31;12.92;70.25
84435;SHT30;74664;45.620;5.138;2023-12-29T06:34:58;12.89;70.21
84435;SHT30;74664;45.620;5.138;2023-12-29T06:37:24;12.90;70.23
84435;SHT30;74664;45.620;5.138;2023-12-29T06:39:51;12.88;70.07
84435;SHT30;74664;45.620;5.138;2023-12-29T06:42:19;12.89;70.09
84435;SHT30;74664;45.620;5.138;2023-12-29T06:44:46;12.86;70.10
84435;SHT30;74664;45.620;5.138;2023-12-29T06:47:13;12.83;70.09
84435;SHT30;74664;45.620;5.138;2023-12-29T06:49:40;12.82;70.03
84435;SHT30;74664;45.620;5.138;2023-12-29T06:52:08;12.82;70.07
84435;SHT30;74664;45.620;5.138;2023-12-29T06:54:36;12.80;69.98
84435;SHT30;74664;45.620;5.138;2023-12-29T06:57:03;12.79;69.92
84435;SHT30;74664;45.620;5.138;2023-12-29T06:59:31;12.76;69.92
84435;SHT30;74664;45.620;5.138;2023-12-29T07:01:57;12.73;69.87
84435;SHT30;74664;45.620;5.138;2023-12-29T07:04:24;12.78;69.83
84435;SHT30;74664;45.620;5.138;2023-12-29T07:06:51;12.75;69.74
84435;SHT30;74664;45.620;5.138;2023-12-29T07:09:17;12.70;69.75
84435;SHT30;74664;45.620;5.138;2023-12-29T07:11:50;12.73;69.71
84435;SHT30;74664;45.620;5.138;2023-12-29T07:14:16;12.69;69.72
84435;SHT30;74664;45.620;5.138;2023-12-29T07:16:45;12.68;69.67
84435;SHT30;74664;45.620;5.138;2023-12-29T07:19:11;12.66;69.67
84435;SHT30;74664;45.620;5.138;2023-12-29T07:21:38;12.66;69.61
84435;SHT30;74664;45.620;5.138;2023-12-29T07:24:05;12.66;69.56
84435;SHT30;74664;45.620;5.138;2023-12-29T07:26:32;12.63;69.53
84435;SHT30;74664;45.620;5.138;2023-12-29T07:28:59;12.60;69.46
84435;SHT30;74664;45.620;5.138;2023-12-29T07:31:26;12.59;69.46
84435;SHT30;74664;45.620;5.138;2023-12-29T07:33:56;12.60;69.39
84435;SHT30;74664;45.620;5.138;2023-12-29T07:36:22;12.59;69.41
84435;SHT30;74664;45.620;5.138;2023-12-29T07:38:49;12.59;69.29
84435;SHT30;74664;45.620;5.138;2023-12-29T07:41:16;12.58;69.33
84435;SHT30;74664;45.620;5.138;2023-12-29T07:43:43;12.56;69.23
84435;SHT30;74664;45.620;5.138;2023-12-29T07:46:10;12.58;69.19
84435;SHT30;74664;45.620;5.138;2023-12-29T07:48:36;12.56;69.12
84435;SHT30;74664;45.620;5.138;2023-12-29T07:51:06;12.58;69.07
84435;SHT30;74664;45.620;5.138;2023-12-29T07:53:32;12.59;69.00
84435;SHT30;74664;45.620;5.138;2023-12-29T07:55:59;12.58;68.91
84435;SHT30;74664;45.620;5.138;2023-12-29T07:58:26;12.59;68.90
84435;SHT30;74664;45.620;5.138;2023-12-29T08:00:52;12.59;68.89
84435;SHT30;74664;45.620;5.138;2023-12-29T08:03:19;12.58;68.84
84435;SHT30;74664;45.620;5.138;2023-12-29T08:05:46;12.62;68.81
84435;SHT30;74664;45.620;5.138;2023-12-29T08:08:14;12.60;68.73
84435;SHT30;74664;45.620;5.138;2023-12-29T08:10:40;12.63;68.68
84435;SHT30;74664;45.620;5.138;2023-12-29T08:13:07;12.65;68.68
84435;SHT30;74664;45.620;5.138;2023-12-29T08:15:38;12.66;68.67
84435;SHT30;74664;45.620;5.138;2023-12-29T08:18:05;12.66;68.67
84435;SHT30;74664;45.620;5.138;2023-12-29T08:20:32;12.65;68.50
84435;SHT30;74664;45.620;5.138;2023-12-29T08:22:58;12.68;68.52
84435;SHT30;74664;45.620;5.138;2023-12-29T08:25:29;12.69;68.42
84435;SHT30;74664;45.620;5.138;2023-12-29T08:27:56;12.68;68.48
84435;SHT30;74664;45.620;5.138;2023-12-29T08:30:23;12.70;68.46
84435;SHT30;74664;45.620;5.138;2023-12-29T08:32:49;12.73;68.46
84435;SHT30;74664;45.620;5.138;2023-12-29T08:35:16;12.69;68.38
84435;SHT30;74664;45.620;5.138;2023-12-29T08:37:43;12.72;68.45
84435;SHT30;74664;45.620;5.138;2023-12-29T08:40:10;12.73;68.42
84435;SHT30;74664;45.620;5.138;2023-12-29T08:42:38;12.76;68.37
84435;SHT30;74664;45.620;5.138;2023-12-29T08:45:06;12.75;68.34
84435;SHT30;74664;45.620;5.138;2023-12-29T08:47:32;12.75;68.30
84435;SHT30;74664;45.620;5.138;2023-12-29T08:49:59;12.82;68.36
84435;SHT30;74664;45.620;5.138;2023-12-29T08:52:27;12.83;68.33
84435;SHT30;74664;45.620;5.138;2023-12-29T08:54:54;12.90;68.40
84435;SHT30;74664;45.620;5.138;2023-12-29T08:57:21;12.96;68.23
84435;SHT30;74664;45.620;5.138;2023-12-29T08:59:49;12.99;68.21
84435;SHT30;74664;45.620;5.138;2023-12-29T09:02:16;13.06;68.23
84435;SHT30;74664;45.620;5.138;2023-12-29T09:04:43;13.07;68.18
84435;SHT30;74664;45.620;5.138;2023-12-29T09:07:09;13.14;68.01
84435;SHT30;74664;45.620;5.138;2023-12-29T09:09:36;13.20;67.95
84435;SHT30;74664;45.620;5.138;2023-12-29T09:12:03;13.24;67.88
84435;SHT30;74664;45.620;5.138;2023-12-29T09:14:30;13.27;67.75
84435;SHT30;74664;45.620;5.138;2023-12-29T09:17:03;13.33;67.75
84435;SHT30;74664;45.620;5.138;2023-12-29T09:19:30;13.34;67.61
84435;SHT30;74664;45.620;5.138;2023-12-29T09:21:57;13.38;67.53
84435;SHT30;74664;45.620;5.138;2023-12-29T09:24:24;13.40;67.56
84435;SHT30;74664;45.620;5.138;2023-12-29T09:26:51;13.41;67.57
84435;SHT30;74664;45.620;5.138;2023-12-29T09:29:17;13.44;67.54
84435;SHT30;74664;45.620;5.138;2023-12-29T09:31:44;13.48;67.48
84435;SHT30;74664;45.620;5.138;2023-12-29T09:34:12;13.46;67.34
84435;SHT30;74664;45.620;5.138;2023-12-29T09:36:39;13.47;67.38
84435;SHT30;74664;45.620;5.138;2023-12-29T09:39:06;13.50;67.24
84435;SHT30;74664;45.620;5.138;2023-12-29T09:41:36;13.54;67.20
84435;SHT30;74664;45.620;5.138;2023-12-29T09:44:13;13.57;67.06
84435;SHT30;74664;45.620;5.138;2023-12-29T09:46:41;13.59;66.96
84435;SHT30;74664;45.620;5.138;2023-12-29T09:49:08;13.58;67.07
84435;SHT30;74664;45.620;5.138;2023-12-29T09:51:38;13.61;67.00
84435;SHT30;74664;45.620;5.138;2023-12-29T09:54:08;13.64;66.93
84435;SHT30;74664;45.620;5.138;2023-12-29T09:56:35;13.65;66.87
84435;SHT30;74664;45.620;5.138;2023-12-29T09:59:03;13.69;66.95
84435;SHT30;74664;45.620;5.138;2023-12-29T10:01:30;13.69;66.77
84435;SHT30;74664;45.620;5.138;2023-12-29T10:03:58;13.72;66.59
84435;SHT30;74664;45.620;5.138;2023-12-29T10:06:26;13.74;66.42
84435;SHT30;74664;45.620;5.138;2023-12-29T10:08:57;13.79;66.43
84435;SHT30;74664;45.620;5.138;2023-12-29T10:11:25;13.81;66.44
84435;SHT30;74664;45.620;5.138;2023-12-29T10:13:58;13.88;66.37
84435;SHT30;74664;45.620;5.138;2023-12-29T10:16:28;13.95;66.16
84435;SHT30;74664;45.620;5.138;2023-12-29T10:19:08;14.01;66.09
84435;SHT30;74664;45.620;5.138;2023-12-29T10:21:40;14.06;65.90
84435;SHT30;74664;45.620;5.138;2023-12-29T10:24:16;14.10;65.89
84435;SHT30;74664;45.620;5.138;2023-12-29T10:26:44;14.16;65.99
84435;SHT30;74664;45.620;5.138;2023-12-29T10:29:11;14.23;65.55
84435;SHT30;74664;45.620;5.138;2023-12-29T10:31:39;14.25;65.69
84435;SHT30;74664;45.620;5.138;2023-12-29T10:34:17;14.29;65.42
84435;SHT30;74664;45.620;5.138;2023-12-29T10:36:47;14.30;65.06
84435;SHT30;74664;45.620;5.138;2023-12-29T10:39:16;14.33;65.18
84435;SHT30;74664;45.620;5.138;2023-12-29T10:41:42;14.38;65.32
84435;SHT30;74664;45.620;5.138;2023-12-29T10:44:09;14.46;65.26
84435;SHT30;74664;45.620;5.138;2023-12-29T10:46:36;14.48;64.80
84435;SHT30;74664;45.620;5.138;2023-12-29T10:49:07;14.54;64.80
84435;SHT30;74664;45.620;5.138;2023-12-29T10:51:34;14.59;64.45
84435;SHT30;74664;45.620;5.138;2023-12-29T10:54:02;14.57;64.65
84435;SHT30;74664;45.620;5.138;2023-12-29T10:56:31;14.63;64.69
84435;SHT30;74664;45.620;5.138;2023-12-29T10:58:59;14.66;64.67
84435;SHT30;74664;45.620;5.138;2023-12-29T11:01:27;14.73;64.58
84435;SHT30;74664;45.620;5.138;2023-12-29T11:03:58;14.73;64.54
84435;SHT30;74664;45.620;5.138;2023-12-29T11:06:26;14.74;64.21
84435;SHT30;74664;45.620;5.138;2023-12-29T11:08:54;14.77;64.20
84435;SHT30;74664;45.620;5.138;2023-12-29T11:11:21;14.78;63.90
84435;SHT30;74664;45.620;5.138;2023-12-29T11:13:49;14.81;63.78
84435;SHT30;74664;45.620;5.138;2023-12-29T11:16:16;14.83;63.72
84435;SHT30;74664;45.620;5.138;2023-12-29T11:18:47;14.87;63.66
84435;SHT30;74664;45.620;5.138;2023-12-29T11:21:16;14.87;63.51
84435;SHT30;74664;45.620;5.138;2023-12-29T11:23:43;14.87;63.33
84435;SHT30;74664;45.620;5.138;2023-12-29T11:26:11;14.92;63.37
84435;SHT30;74664;45.620;5.138;2023-12-29T11:28:41;14.91;63.54
84435;SHT30;74664;45.620;5.138;2023-12-29T11:31:10;14.96;63.33
84435;SHT30;74664;45.620;5.138;2023-12-29T11:33:40;14.98;63.57
84435;SHT30;74664;45.620;5.138;2023-12-29T11:36:12;14.99;63.15
84435;SHT30;74664;45.620;5.138;2023-12-29T11:38:52;15.01;63.13
84435;SHT30;74664;45.620;5.138;2023-12-29T11:41:22;15.04;63.30
84435;SHT30;74664;45.620;5.138;2023-12-29T11:43:58;15.05;63.20
84435;SHT30;74664;45.620;5.138;2023-12-29T11:46:36;15.09;63.09
84435;SHT30;74664;45.620;5.138;2023-12-29T11:49:06;15.09;62.90
84435;SHT30;74664;45.620;5.138;2023-12-29T11:51:35;15.09;63.14
84435;SHT30;74664;45.620;5.138;2023-12-29T11:54:02;15.12;62.68
84435;SHT30;74664;45.620;5.138;2023-12-29T11:56:31;15.16;62.78
84435;SHT30;74664;45.620;5.138;2023-12-29T11:59:12;15.15;62.91
84435;SHT30;74664;45.620;5.138;2023-12-29T12:01:41;15.18;62.49
84435;SHT30;74664;45.620;5.138;2023-12-29T12:04:35;15.19;62.74
84435;SHT30;74664;45.620;5.138;2023-12-29T12:07:03;15.24;62.48
84435;SHT30;74664;45.620;5.138;2023-12-29T12:09:30;15.22;62.51
84435;SHT30;74664;45.620;5.138;2023-12-29T12:12:00;15.25;62.60
84435;SHT30;74664;45.620;5.138;2023-12-29T12:14:45;15.24;62.08
84435;SHT30;74664;45.620;5.138;2023-12-29T12:17:26;15.24;62.14
84435;SHT30;74664;45.620;5.138;2023-12-29T12:19:58;15.25;62.14
84435;SHT30;74664;45.620;5.138;2023-12-29T12:22:25;15.24;62.22
84435;SHT30;74664;45.620;5.138;2023-12-29T12:24:55;15.25;62.21
84435;SHT30;74664;45.620;5.138;2023-12-29T12:27:23;15.25;62.23
84435;SHT30;74664;45.620;5.138;2023-12-29T12:29:53;15.26;62.21
84435;SHT30;74664;45.620;5.138;2023-12-29T12:32:23;15.29;62.14
84435;SHT30;74664;45.620;5.138;2023-12-29T12:34:50;15.28;62.19
84435;SHT30;74664;45.620;5.138;2023-12-29T12:37:21;15.29;62.29
84435;SHT30;74664;45.620;5.138;2023-12-29T12:39:48;15.31;62.53
84435;SHT30;74664;45.620;5.138;2023-12-29T12:42:16;15.31;62.64
84435;SHT30;74664;45.620;5.138;2023-12-29T12:44:48;15.34;62.70
84435;SHT30;74664;45.620;5.138;2023-12-29T12:47:22;15.32;62.61
84435;SHT30;74664;45.620;5.138;2023-12-29T12:49:51;15.32;62.75
84435;SHT30;74664;45.620;5.138;2023-12-29T12:52:18;15.29;62.77
84435;SHT30;74664;45.620;5.138;2023-12-29T12:54:46;15.32;62.68
84435;SHT30;74664;45.620;5.138;2023-12-29T12:57:18;15.34;62.81
84435;SHT30;74664;45.620;5.138;2023-12-29T12:59:45;15.32;62.71
84435;SHT30;74664;45.620;5.138;2023-12-29T13:02:13;15.32;62.74
84435;SHT30;74664;45.620;5.138;2023-12-29T13:04:40;15.31;62.99
84435;SHT30;74664;45.620;5.138;2023-12-29T13:07:08;15.34;63.21
84435;SHT30;74664;45.620;5.138;2023-12-29T13:09:36;15.34;63.32
84435;SHT30;74664;45.620;5.138;2023-12-29T13:12:10;15.34;63.49
84435;SHT30;74664;45.620;5.138;2023-12-29T13:14:37;15.34;63.23
84435;SHT30;74664;45.620;5.138;2023-12-29T13:17:07;15.32;63.59
84435;SHT30;74664;45.620;5.138;2023-12-29T13:19:35;15.34;63.60
84435;SHT30;74664;45.620;5.138;2023-12-29T13:22:02;15.32;63.49
84435;SHT30;74664;45.620;5.138;2023-12-29T13:24:33;15.29;63.33
84435;SHT30;74664;45.620;5.138;2023-12-29T13:27:04;15.24;63.42
84435;SHT30;74664;45.620;5.138;2023-12-29T13:29:35;15.21;63.61
84435;SHT30;74664;45.620;5.138;2023-12-29T13:32:12;15.22;63.74
84435;SHT30;74664;45.620;5.138;2023-12-29T13:34:52;15.24;63.57
84435;SHT30;74664;45.620;5.138;2023-12-29T13:37:25;15.26;63.16
84435;SHT30;74664;45.620;5.138;2023-12-29T13:40:09;15.29;63.23
84435;SHT30;74664;45.620;5.138;2023-12-29T13:42:42;15.29;62.99
84435;SHT30;74664;45.620;5.138;2023-12-29T13:45:11;15.31;63.27
84435;SHT30;74664;45.620;5.138;2023-12-29T13:47:41;15.35;63.23
84435;SHT30;74664;45.620;5.138;2023-12-29T13:50:10;15.32;63.22
84435;SHT30;74664;45.620;5.138;2023-12-29T13:52:37;15.34;63.33
84435;SHT30;74664;45.620;5.138;2023-12-29T13:55:06;15.35;63.24
84435;SHT30;74664;45.620;5.138;2023-12-29T13:57:33;15.34;63.14
84435;SHT30;74664;45.620;5.138;2023-12-29T14:00:14;15.36;63.13
84435;SHT30;74664;45.620;5.138;2023-12-29T14:02:44;15.36;62.96
84435;SHT30;74664;45.620;5.138;2023-12-29T14:05:14;15.40;63.12
84435;SHT30;74664;45.620;5.138;2023-12-29T14:07:45;15.42;63.18
84435;SHT30;74664;45.620;5.138;2023-12-29T14:10:14;15.43;62.86
84435;SHT30;74664;45.620;5.138;2023-12-29T14:12:41;15.45;62.78
84435;SHT30;74664;45.620;5.138;2023-12-29T14:15:08;15.45;62.28
84435;SHT30;74664;45.620;5.138;2023-12-29T14:17:36;15.40;62.47
84435;SHT30;74664;45.620;5.138;2023-12-29T14:20:04;15.40;62.19
84435;SHT30;74664;45.620;5.138;2023-12-29T14:22:32;15.40;62.27
84435;SHT30;74664;45.620;5.138;2023-12-29T14:25:03;15.39;62.21
84435;SHT30;74664;45.620;5.138;2023-12-29T14:27:32;15.38;62.10
84435;SHT30;74664;45.620;5.138;2023-12-29T14:29:58;15.36;62.20
84435;SHT30;74664;45.620;5.138;2023-12-29T14:32:25;15.39;62.08
84435;SHT30;74664;45.620;5.138;2023-12-29T14:34:54;15.35;62.11
84435;SHT30;74664;45.620;5.138;2023-12-29T14:37:22;15.32;62.05
84435;SHT30;74664;45.620;5.138;2023-12-29T14:39:49;15.31;62.05
84435;SHT30;74664;45.620;5.138;2023-12-29T14:42:16;15.32;62.17
84435;SHT30;74664;45.620;5.138;2023-12-29T14:44:46;15.26;62.09
84435;SHT30;74664;45.620;5.138;2023-12-29T14:47:16;15.26;61.76
84435;SHT30;74664;45.620;5.138;2023-12-29T14:49:46;15.24;61.94
84435;SHT30;74664;45.620;5.138;2023-12-29T14:52:12;15.24;61.84
84435;SHT30;74664;45.620;5.138;2023-12-29T14:54:39;15.21;61.70
84435;SHT30;74664;45.620;5.138;2023-12-29T14:57:07;15.19;61.77
84435;SHT30;74664;45.620;5.138;2023-12-29T14:59:33;15.19;61.54
84435;SHT30;74664;45.620;5.138;2023-12-29T15:02:03;15.18;61.50
84435;SHT30;74664;45.620;5.138;2023-12-29T15:04:33;15.15;61.41
84435;SHT30;74664;45.620;5.138;2023-12-29T15:06:59;15.12;61.41
84435;SHT30;74664;45.620;5.138;2023-12-29T15:09:27;15.11;61.38
84435;SHT30;74664;45.620;5.138;2023-12-29T15:11:55;15.09;61.14
84435;SHT30;74664;45.620;5.138;2023-12-29T15:14:22;15.06;61.45
84435;SHT30;74664;45.620;5.138;2023-12-29T15:16:49;15.08;61.36
84435;SHT30;74664;45.620;5.138;2023-12-29T15:19:17;15.04;61.41
84435;SHT30;74664;45.620;5.138;2023-12-29T15:21:44;15.02;61.36
84435;SHT30;74664;45.620;5.138;2023-12-29T15:24:11;15.01;61.39
84435;SHT30;74664;45.620;5.138;2023-12-29T15:26:38;14.99;61.40
84435;SHT30;74664;45.620;5.138;2023-12-29T15:29:05;14.98;61.44
84435;SHT30;74664;45.620;5.138;2023-12-29T15:31:42;14.96;61.47
84435;SHT30;74664;45.620;5.138;2023-12-29T15:34:09;14.95;61.55
84435;SHT30;74664;45.620;5.138;2023-12-29T15:36:37;14.94;61.31